createdAt,value
2022-11-03T00:02:23.760Z,99766.94
2022-11-03T00:05:22.587Z,99777.28
2022-11-03T00:08:16.522Z,99774.81
2022-11-03T00:10:55.343Z,99772.38
2022-11-03T00:13:34.729Z,99770.66
2022-11-03T00:16:26.783Z,99775.84
2022-11-03T00:19:07.739Z,99772.38
2022-11-03T00:21:51.887Z,99773.19
2022-11-03T00:24:37.330Z,99779.16
2022-11-03T00:27:15.910Z,99739.53
2022-11-03T00:29:57.582Z,99774.09
2022-11-03T00:32:41.561Z,99772.38
2022-11-03T00:35:28.539Z,99772.22
2022-11-03T00:38:06.105Z,99775.56
2022-11-03T00:40:44.933Z,99765.50
2022-11-03T00:43:24.338Z,99767.31
2022-11-03T00:46:00.297Z,99767.31
2022-11-03T00:48:45.894Z,99770.75
2022-11-03T00:51:31.227Z,99746.44
2022-11-03T00:54:17.650Z,99756.75
2022-11-03T00:57:25.667Z,99761.16
2022-11-03T01:00:20.052Z,99760.22
2022-11-03T01:03:03.087Z,99753.25
2022-11-03T01:06:06.093Z,99740.38
2022-11-03T01:09:11.576Z,99731.06
2022-11-03T01:12:11.176Z,99731.31
2022-11-03T01:17:52.851Z,99716.00
2022-11-03T01:20:41.722Z,99724.59
2022-11-03T01:23:43.396Z,99715.94
2022-11-03T01:26:28.275Z,99713.31
2022-11-03T01:29:16.743Z,99724.44
2022-11-03T01:32:07.326Z,99731.22
2022-11-03T01:34:51.890Z,99719.81
2022-11-03T01:37:43.929Z,99720.41
2022-11-03T01:40:30.169Z,99527.75
2022-11-03T01:46:59.115Z,99696.56
2022-11-03T01:50:14.328Z,99693.94
2022-11-03T01:53:05.947Z,99687.88
2022-11-03T01:55:46.422Z,99684.47
2022-11-03T02:01:53.665Z,99667.31
2022-11-03T02:04:45.655Z,99669.06
2022-11-03T02:07:39.695Z,99658.03
2022-11-03T02:10:36.370Z,99647.72
2022-11-03T02:13:39.883Z,99646.91
2022-11-03T02:16:31.421Z,99643.53
2022-11-03T02:19:15.064Z,99642.66
2022-11-03T02:22:12.544Z,99641.75
2022-11-03T02:24:59.835Z,99653.78
2022-11-03T02:28:09.170Z,99648.59
2022-11-03T02:30:50.350Z,99645.22
2022-11-03T02:33:53.366Z,99630.56
2022-11-03T02:39:28.542Z,99645.22
2022-11-03T02:45:20.931Z,99638.25
2022-11-03T02:48:17.255Z,99631.38
2022-11-03T02:51:04.563Z,99617.50
2022-11-03T02:54:03.226Z,99639.88
2022-11-03T03:00:37.402Z,99632.81
2022-11-03T03:03:31.751Z,99638.06
2022-11-03T03:06:18.764Z,99628.66
2022-11-03T03:09:06.905Z,99631.19
2022-11-03T03:12:17.497Z,99629.44
2022-11-03T03:15:03.925Z,99622.56
2022-11-03T03:17:47.239Z,99626.03
2022-11-03T03:20:29.459Z,99628.63
2022-11-03T03:23:27.519Z,99615.72
2022-11-03T03:26:26.911Z,99623.44
2022-11-03T03:29:13.592Z,99576.00
2022-11-03T03:31:58.728Z,99619.13
2022-11-03T03:34:54.794Z,99617.41
2022-11-03T03:37:48.227Z,99605.38
2022-11-03T03:43:31.880Z,99604.59
2022-11-03T03:46:16.448Z,99598.56
2022-11-03T03:49:01.993Z,99602.81
2022-11-03T03:51:50.671Z,99592.47
2022-11-03T03:54:36.162Z,99570.88
2022-11-03T03:57:28.441Z,99597.63
2022-11-03T04:00:19.891Z,99597.63
2022-11-03T04:03:01.741Z,99608.78
2022-11-03T04:05:41.296Z,99600.25
2022-11-03T04:08:26.969Z,99600.22
2022-11-03T04:11:37.675Z,99596.81
2022-11-03T04:14:33.230Z,99595.09
2022-11-03T04:17:30.323Z,99595.13
2022-11-03T04:20:23.234Z,99596.91
2022-11-03T04:25:56.025Z,99590.06
2022-11-03T04:28:52.565Z,99579.75
2022-11-03T04:31:49.849Z,99576.34
2022-11-03T04:34:39.260Z,99578.00
2022-11-03T04:37:18.754Z,99579.72
2022-11-03T04:43:00.140Z,99583.16
2022-11-03T04:45:57.463Z,99580.53
2022-11-03T04:48:38.435Z,99581.41
2022-11-03T04:51:50.839Z,99576.25
2022-11-03T04:57:24.185Z,99562.44
2022-11-03T05:00:03.996Z,99582.28
2022-11-03T05:02:59.850Z,99578.81
2022-11-03T05:05:43.417Z,99582.25
2022-11-03T05:08:34.988Z,99575.34
2022-11-03T05:11:48.088Z,99579.59
2022-11-03T05:14:47.555Z,99574.38
2022-11-03T05:17:47.772Z,99545.00
2022-11-03T05:21:06.628Z,99589.81
2022-11-03T05:23:58.226Z,99587.25
2022-11-03T05:26:54.930Z,99565.75
2022-11-03T05:30:00.762Z,99583.00
2022-11-03T05:32:54.044Z,99538.16
2022-11-03T05:35:41.528Z,99579.59
2022-11-03T05:38:20.857Z,99540.81
2022-11-03T05:41:13.313Z,99525.31
2022-11-03T05:44:11.878Z,99563.25
2022-11-03T05:47:11.908Z,99564.09
2022-11-03T05:49:56.275Z,99584.78
2022-11-03T05:52:51.858Z,99572.72
2022-11-03T05:55:38.625Z,99556.31
2022-11-03T05:58:41.233Z,99580.44
2022-11-03T06:01:28.622Z,99574.41
2022-11-03T06:04:11.537Z,99570.97
2022-11-03T06:07:10.758Z,99572.72
2022-11-03T06:10:04.390Z,99571.78
2022-11-03T06:12:40.449Z,99577.69
2022-11-03T06:15:28.393Z,99579.41
2022-11-03T06:18:23.075Z,99520.75
2022-11-03T06:21:19.082Z,99578.50
2022-11-03T06:24:02.384Z,99575.94
2022-11-03T06:27:00.753Z,99558.69
2022-11-03T06:29:58.667Z,99538.84
2022-11-03T06:32:41.298Z,99563.84
2022-11-03T06:35:24.692Z,99561.22
2022-11-03T06:38:30.836Z,99569.78
2022-11-03T06:41:32.547Z,99565.47
2022-11-03T06:44:42.558Z,99568.03
2022-11-03T06:47:46.920Z,99520.59
2022-11-03T06:50:45.002Z,99563.69
2022-11-03T06:53:30.903Z,99560.16
2022-11-03T06:56:38.001Z,99566.97
2022-11-03T07:03:00.510Z,99559.13
2022-11-03T07:05:56.355Z,99563.31
2022-11-03T07:08:52.116Z,99566.72
2022-11-03T07:11:43.451Z,99566.72
2022-11-03T07:14:43.352Z,99523.50
2022-11-03T07:17:38.100Z,99570.13
2022-11-03T07:20:35.656Z,99560.69
2022-11-03T07:23:23.378Z,99559.72
2022-11-03T07:26:03.846Z,99578.63
2022-11-03T07:28:53.829Z,99579.50
2022-11-03T07:31:43.079Z,99585.50
2022-11-03T07:34:32.687Z,99582.03
2022-11-03T07:37:22.457Z,99579.53
2022-11-03T07:40:28.175Z,99578.66
2022-11-03T07:43:29.515Z,99585.50
2022-11-03T07:46:18.261Z,99583.81
2022-11-03T07:49:05.570Z,99572.59
2022-11-03T07:52:13.852Z,99582.84
2022-11-03T07:54:55.922Z,99571.66
2022-11-03T07:57:56.205Z,99580.25
2022-11-03T08:00:34.675Z,99576.75
2022-11-03T08:03:29.730Z,99590.50
2022-11-03T08:06:10.203Z,99587.97
2022-11-03T08:08:53.232Z,99587.13
2022-11-03T08:12:06.079Z,99586.38
2022-11-03T08:14:57.928Z,99590.69
2022-11-03T08:17:46.150Z,99587.22
2022-11-03T08:20:32.422Z,99595.81
2022-11-03T08:23:25.206Z,99589.00
2022-11-03T08:26:15.210Z,99588.00
2022-11-03T08:28:55.377Z,99581.06
2022-11-03T08:34:40.096Z,99600.81
2022-11-03T08:37:14.314Z,99590.50
2022-11-03T08:40:02.610Z,99592.13
2022-11-03T08:42:44.886Z,99593.84
2022-11-03T08:45:17.734Z,99600.78
2022-11-03T08:47:58.912Z,99603.41
2022-11-03T08:50:55.113Z,99621.41
2022-11-03T08:53:50.631Z,99557.69
2022-11-03T08:57:00.872Z,99602.63
2022-11-03T08:59:48.516Z,99590.50
2022-11-03T09:02:26.359Z,99593.09
2022-11-03T09:05:02.400Z,99592.28
2022-11-03T09:11:10.621Z,99592.19
2022-11-03T09:14:04.646Z,99580.13
2022-11-03T09:17:05.300Z,99592.28
2022-11-03T09:23:03.417Z,99604.16
2022-11-03T09:25:47.372Z,99604.75
2022-11-03T09:28:34.273Z,99598.28
2022-11-03T09:31:44.944Z,99602.97
2022-11-03T09:34:46.723Z,99596.00
2022-11-03T09:37:22.951Z,99602.16
2022-11-03T09:43:20.174Z,99607.50
2022-11-03T09:46:09.659Z,99624.59
2022-11-03T09:48:51.580Z,99621.34
2022-11-03T09:51:42.986Z,99624.88
2022-11-03T09:54:25.568Z,99503.22
2022-11-03T09:57:12.203Z,99628.75
2022-11-03T09:59:56.758Z,99619.31
2022-11-03T10:03:00.371Z,99613.44
2022-11-03T10:05:40.207Z,99606.66
2022-11-03T10:14:41.031Z,99593.91
2022-11-03T10:17:27.934Z,99581.00
2022-11-03T10:20:07.645Z,99593.94
2022-11-03T10:22:43.357Z,99591.41
2022-11-03T10:25:51.104Z,99590.59
2022-11-03T10:28:33.610Z,99574.25
2022-11-03T10:31:14.643Z,99558.63
2022-11-03T10:34:07.442Z,99573.31
2022-11-03T10:41:07.068Z,99575.06
2022-11-03T10:43:55.544Z,99530.97
2022-11-03T10:49:53.500Z,99597.78
2022-11-03T10:52:50.806Z,99602.50
2022-11-03T10:56:25.025Z,99593.38
2022-11-03T10:59:49.008Z,99591.66
2022-11-03T11:02:38.883Z,99582.09
2022-11-03T11:08:33.657Z,99593.28
2022-11-03T11:14:47.020Z,99597.63
2022-11-03T11:17:54.533Z,99586.63
2022-11-03T11:21:11.567Z,99569.44
2022-11-03T11:24:16.009Z,99590.06
2022-11-03T11:27:02.425Z,99586.66
2022-11-03T11:30:05.263Z,99589.25
2022-11-03T11:33:16.920Z,99522.47
2022-11-03T11:43:58.381Z,99585.88
2022-11-03T11:47:14.902Z,99579.94
2022-11-03T11:50:33.572Z,99576.75
2022-11-03T11:56:52.972Z,99583.84
2022-11-03T11:59:38.564Z,99581.25
2022-11-03T12:02:33.090Z,99594.22
2022-11-03T12:05:12.916Z,99595.16
2022-11-03T12:07:56.568Z,99573.66
2022-11-03T12:13:55.418Z,99554.66
2022-11-03T12:16:45.558Z,99590.84
2022-11-03T12:20:03.258Z,99594.16
2022-11-03T12:22:56.617Z,99593.28
2022-11-03T12:25:51.108Z,99573.19
2022-11-03T12:28:46.613Z,99589.75
2022-11-03T12:31:25.436Z,99590.59
2022-11-03T12:34:00.510Z,99595.78
2022-11-03T12:36:58.715Z,99592.44
2022-11-03T12:40:03.859Z,99587.38
2022-11-03T12:43:02.639Z,99588.34
2022-11-03T12:45:41.133Z,99587.38
2022-11-03T12:48:31.129Z,99583.13
2022-11-03T12:51:06.587Z,99580.53
2022-11-03T12:53:51.627Z,99585.66
2022-11-03T12:59:41.440Z,99571.88
2022-11-03T13:02:32.805Z,99568.41
2022-11-03T13:05:09.045Z,99566.59
2022-11-03T13:07:45.301Z,99567.41
2022-11-03T13:10:37.442Z,99566.53
2022-11-03T13:13:23.694Z,99557.03
2022-11-03T13:16:11.510Z,99556.13
2022-11-03T13:19:05.534Z,99567.38
2022-11-03T13:21:43.886Z,99558.75
2022-11-03T13:24:30.738Z,99563.03
2022-11-03T13:27:12.485Z,99563.84
2022-11-03T13:29:56.460Z,99566.31
2022-11-03T13:32:35.411Z,99581.78
2022-11-03T13:35:14.477Z,99570.69
2022-11-03T13:37:54.402Z,99556.09
2022-11-03T13:40:55.669Z,99547.50
2022-11-03T13:43:45.699Z,99549.19
2022-11-03T13:46:33.612Z,99557.88
2022-11-03T13:52:09.550Z,99548.53
2022-11-03T14:00:47.542Z,99552.16
2022-11-03T14:06:49.065Z,99558.13
2022-11-03T14:09:26.541Z,99551.19
2022-11-03T14:15:32.318Z,99542.69
2022-11-03T14:18:19.417Z,99539.19
2022-11-03T14:21:04.936Z,99534.06
2022-11-03T14:23:56.086Z,99523.69
2022-11-03T14:26:50.346Z,99531.50
2022-11-03T14:29:31.044Z,99532.31
2022-11-03T14:32:28.088Z,99535.84
2022-11-03T14:35:21.325Z,99532.50
2022-11-03T14:38:09.744Z,99527.50
2022-11-03T14:41:00.038Z,99522.31
2022-11-03T14:43:49.851Z,99529.19
2022-11-03T14:46:34.651Z,99528.31
2022-11-03T14:49:12.567Z,99522.31
2022-11-03T14:52:25.682Z,99520.75
2022-11-03T14:55:13.098Z,99506.91
2022-11-03T14:57:51.477Z,99523.31
2022-11-03T15:00:30.518Z,99518.16
2022-11-03T15:03:31.250Z,99513.75
2022-11-03T15:06:11.147Z,99494.81
2022-11-03T15:09:05.993Z,99500.19
2022-11-03T15:12:14.909Z,99503.56
2022-11-03T15:15:18.113Z,99498.34
2022-11-03T15:17:56.572Z,99505.28
2022-11-03T15:20:38.264Z,99500.97
2022-11-03T15:30:43.906Z,99494.09
2022-11-03T15:33:19.885Z,99485.41
2022-11-03T15:36:13.157Z,99479.31
2022-11-03T15:38:52.653Z,99475.88
2022-11-03T15:41:50.419Z,99475.78
2022-11-03T15:44:50.148Z,99479.94
2022-11-03T15:48:03.073Z,99476.41
2022-11-03T15:50:48.912Z,99478.94
2022-11-03T15:53:26.202Z,99467.72
2022-11-03T15:56:05.069Z,99466.88
2022-11-03T15:58:54.882Z,99334.94
2022-11-03T16:01:37.973Z,99462.81
2022-11-03T16:04:35.251Z,99448.19
2022-11-03T16:07:25.482Z,99458.63
2022-11-03T16:10:19.521Z,99472.59
2022-11-03T16:13:15.417Z,99464.06
2022-11-03T16:15:55.416Z,99468.34
2022-11-03T16:21:43.799Z,99476.16
2022-11-03T16:27:41.557Z,99479.47
2022-11-03T16:30:20.910Z,99460.38
2022-11-03T16:33:10.328Z,99479.28
2022-11-03T16:35:58.408Z,99471.47
2022-11-03T16:38:46.032Z,99472.22
2022-11-03T16:41:30.418Z,99475.50
2022-11-03T16:44:12.205Z,99485.69
2022-11-03T16:46:49.312Z,99478.84
2022-11-03T16:49:52.839Z,99485.69
2022-11-03T16:52:37.817Z,99490.03
2022-11-03T16:55:19.101Z,99489.19
2022-11-03T17:01:07.775Z,99485.84
2022-11-03T17:03:45.313Z,99487.53
2022-11-03T17:06:44.667Z,99482.47
2022-11-03T17:09:33.812Z,99487.63
2022-11-03T17:12:34.180Z,99482.53
2022-11-03T17:15:20.784Z,99486.84
2022-11-03T17:18:20.775Z,99489.44
2022-11-03T17:24:00.782Z,99479.38
2022-11-03T17:26:44.983Z,99482.88
2022-11-03T17:32:51.987Z,99479.25
2022-11-03T17:35:49.013Z,99480.97
2022-11-03T17:38:34.129Z,99467.09
2022-11-03T17:41:13.749Z,99483.47
2022-11-03T17:44:07.749Z,99487.75
2022-11-03T17:46:52.349Z,99487.69
2022-11-03T17:49:47.058Z,99496.25
2022-11-03T17:52:42.255Z,99484.25
2022-11-03T17:56:27.776Z,99485.94
2022-11-03T17:59:20.825Z,99497.94
2022-11-03T18:02:32.577Z,99492.84
2022-11-03T18:05:33.253Z,99488.66
2022-11-03T18:08:30.771Z,99489.59
2022-11-03T18:11:16.344Z,99468.00
2022-11-03T18:13:54.961Z,99482.66
2022-11-03T18:16:58.318Z,99481.78
2022-11-03T18:19:54.290Z,99486.94
2022-11-03T18:22:47.261Z,99489.47
2022-11-03T18:25:25.804Z,99490.28
2022-11-03T18:28:20.244Z,99395.19
2022-11-03T18:31:34.047Z,99491.13
2022-11-03T18:34:12.303Z,99484.25
2022-11-03T18:37:02.143Z,99454.09
2022-11-03T18:39:48.901Z,99486.16
2022-11-03T18:42:29.409Z,99482.72
2022-11-03T18:45:24.113Z,99486.25
2022-11-03T18:48:40.794Z,99500.09
2022-11-03T18:51:19.709Z,99498.38
2022-11-03T18:54:25.010Z,99494.97
2022-11-03T18:57:03.370Z,99474.34
2022-11-03T18:59:50.452Z,99481.22
2022-11-03T19:02:35.722Z,99406.88
2022-11-03T19:05:18.579Z,99499.28
2022-11-03T19:11:28.092Z,99484.75
2022-11-03T19:14:13.329Z,99493.31
2022-11-03T19:17:24.905Z,99491.41
2022-11-03T19:20:13.064Z,99505.13
2022-11-03T19:25:53.375Z,99508.59
2022-11-03T19:28:44.965Z,99506.81
2022-11-03T19:32:23.416Z,99521.28
2022-11-03T19:35:21.908Z,99501.50
2022-11-03T19:38:21.074Z,99521.22
2022-11-03T19:41:21.580Z,99521.22
2022-11-03T19:44:27.803Z,99513.69
2022-11-03T19:47:15.229Z,99503.28
2022-11-03T19:49:55.373Z,99515.13
2022-11-03T19:52:39.697Z,99511.66
2022-11-03T19:55:26.814Z,99515.16
2022-11-03T19:58:18.541Z,99514.31
2022-11-03T20:01:08.941Z,99511.75
2022-11-03T20:04:00.938Z,99510.03
2022-11-03T20:06:55.188Z,99508.31
2022-11-03T20:09:43.614Z,99511.88
2022-11-03T20:12:29.484Z,99504.06
2022-11-03T20:15:30.633Z,99508.38
2022-11-03T20:18:18.353Z,99500.59
2022-11-03T20:21:10.776Z,99511.75
2022-11-03T20:24:05.973Z,99506.59
2022-11-03T20:26:45.408Z,99511.69
2022-11-03T20:30:03.670Z,99521.94
2022-11-03T20:33:29.619Z,99461.34
2022-11-03T20:39:32.128Z,99520.22
2022-11-03T20:42:19.052Z,99512.44
2022-11-03T20:45:07.312Z,99515.94
2022-11-03T20:47:49.585Z,99514.22
2022-11-03T20:50:29.388Z,99520.09
2022-11-03T20:53:27.319Z,99518.38
2022-11-03T20:56:25.051Z,99517.47
2022-11-03T20:59:21.644Z,99526.91
2022-11-03T21:02:07.360Z,99524.16
2022-11-03T21:04:45.095Z,99532.47
2022-11-03T21:07:34.287Z,99533.09
2022-11-03T21:10:21.254Z,99491.38
2022-11-03T21:13:12.639Z,99521.56
2022-11-03T21:16:24.106Z,99533.59
2022-11-03T21:19:18.271Z,99537.09
2022-11-03T21:24:58.374Z,99536.44
2022-11-03T21:31:05.053Z,99540.16
2022-11-03T21:33:53.307Z,99541.03
2022-11-03T21:36:38.629Z,99549.75
2022-11-03T21:42:27.401Z,99544.53
2022-11-03T21:45:15.620Z,99552.97
2022-11-03T21:48:25.942Z,99555.59
2022-11-03T21:51:04.468Z,99564.09
2022-11-03T21:53:43.074Z,99555.56
2022-11-03T21:56:36.095Z,99560.81
2022-11-03T21:59:21.648Z,99559.19
2022-11-03T22:02:01.984Z,99563.69
2022-11-03T22:04:47.655Z,99562.19
2022-11-03T22:07:42.199Z,99575.41
2022-11-03T22:10:20.277Z,99573.97
2022-11-03T22:13:08.931Z,99568.97
2022-11-03T22:16:24.474Z,99568.25
2022-11-03T22:19:17.090Z,99573.41
2022-11-03T22:22:15.636Z,99570.94
2022-11-03T22:25:08.145Z,99568.41
2022-11-03T22:31:15.689Z,99572.72
2022-11-03T22:34:06.876Z,99569.34
2022-11-03T22:36:49.365Z,99563.41
2022-11-03T22:39:51.913Z,99576.41
2022-11-03T22:42:45.823Z,99590.06
2022-11-03T22:45:42.086Z,99439.97
2022-11-03T22:48:22.506Z,99585.03
2022-11-03T22:54:17.891Z,99581.78
2022-11-03T22:57:10.092Z,99586.91
2022-11-03T22:59:56.443Z,99592.19
2022-11-03T23:02:56.073Z,99583.66
2022-11-03T23:05:47.807Z,99590.50
2022-11-03T23:11:28.324Z,99525.94
2022-11-03T23:14:22.308Z,99568.28
2022-11-03T23:17:19.112Z,99576.09
2022-11-03T23:20:26.334Z,99582.94
2022-11-03T23:23:40.391Z,99583.81
2022-11-03T23:26:28.114Z,99573.50
2022-11-03T23:29:13.790Z,99583.00
2022-11-03T23:32:03.338Z,99582.16
2022-11-03T23:35:04.655Z,99584.00
2022-11-03T23:37:50.486Z,99580.72
2022-11-03T23:40:28.560Z,99578.19
2022-11-03T23:43:15.435Z,99571.41
2022-11-03T23:49:44.407Z,99577.53
2022-11-03T23:56:25.283Z,99571.50
2022-11-03T23:59:12.814Z,99568.03
